Time;durP1;ratioP1;P1;durP2;ratioP2;P2;SDS_P1;SDS_P2;PMS_P1;PMS_P2;Temp;Humidity;BMP_temperature;BMP_pressure;BME280_temperature;BME280_humidity;BME280_pressure;Samples;Min_cycle;Max_cycle;Signal;HPM_P1;HPM_P2
2022/11/07 00:01:45;;;;;;;14.55;4.53;;;;;;;;;;5020240;28;20105;-78
2022/11/07 00:04:13;;;;;;;10.90;4.22;;;;;;;;;;5016235;28;20049;-77
2022/11/07 00:06:40;;;;;;;9.70;4.15;;;;;;;;;;5020221;28;20049;-77
2022/11/07 00:09:08;;;;;;;10.32;4.22;;;;;;;;;;5015928;28;20090;-77
2022/11/07 00:11:36;;;;;;;8.27;4.25;;;;;;;;;;5025492;28;20046;-77
2022/11/07 00:14:10;;;;;;;12.55;4.00;;;;;;;;;;5025680;28;20149;-77
2022/11/07 00:16:38;;;;;;;10.48;4.20;;;;;;;;;;5018824;28;20530;-77
2022/11/07 00:19:06;;;;;;;17.65;4.18;;;;;;;;;;5022098;28;20061;-76
2022/11/07 00:21:33;;;;;;;8.75;3.83;;;;;;;;;;5017086;28;20050;-77
2022/11/07 00:24:01;;;;;;;11.88;4.07;;;;;;;;;;5012605;28;20073;-77
2022/11/07 00:26:28;;;;;;;12.32;3.97;;;;;;;;;;5022338;28;20166;-77
2022/11/07 00:28:55;;;;;;;12.48;4.30;;;;;;;;;;5037948;28;20051;-77
2022/11/07 00:31:23;;;;;;;9.02;3.70;;;;;;;;;;5018476;28;20085;-77
2022/11/07 00:33:51;;;;;;;11.43;3.80;;;;;;;;;;5014212;28;20061;-77
2022/11/07 00:36:23;;;;;;;12.43;3.60;;;;;;;;;;5017617;28;20936;-77
2022/11/07 00:38:50;;;;;;;9.93;4.07;;;;;;;;;;5016869;28;20060;-77
2022/11/07 00:41:21;;;;;;;7.75;3.75;;;;;;;;;;5025981;28;20052;-77
2022/11/07 00:43:48;;;;;;;13.82;3.65;;;;;;;;;;5017327;28;20055;-78
2022/11/07 00:46:18;;;;;;;7.55;3.70;;;;;;;;;;5023131;28;20504;-76
2022/11/07 00:48:46;;;;;;;15.13;4.03;;;;;;;;;;5020928;28;20053;-77
2022/11/07 00:51:15;;;;;;;14.00;4.28;;;;;;;;;;5012869;28;20042;-77
2022/11/07 00:53:42;;;;;;;12.15;3.88;;;;;;;;;;5020335;28;20101;-77
2022/11/07 00:56:11;;;;;;;14.40;4.05;;;;;;;;;;5022575;28;20064;-77
2022/11/07 00:58:40;;;;;;;13.02;3.70;;;;;;;;;;5025845;28;20045;-77
2022/11/07 01:01:10;;;;;;;15.98;3.72;;;;;;;;;;5024666;28;20058;-77
2022/11/07 01:06:26;;;;;;;13.30;3.50;;;;;;;;;;5020505;28;20137;-77
2022/11/07 01:08:55;;;;;;;8.23;3.40;;;;;;;;;;5017215;28;20081;-77
2022/11/07 01:11:27;;;;;;;7.10;3.17;;;;;;;;;;5013754;28;20065;-77
2022/11/07 01:13:58;;;;;;;7.50;3.28;;;;;;;;;;5022009;28;20056;-77
2022/11/07 01:16:26;;;;;;;11.10;3.63;;;;;;;;;;5014151;28;20141;-77
2022/11/07 01:18:54;;;;;;;13.60;3.63;;;;;;;;;;5020159;28;20074;-77
2022/11/07 01:21:21;;;;;;;8.35;3.08;;;;;;;;;;5018428;28;20503;-77
2022/11/07 01:23:49;;;;;;;8.93;3.50;;;;;;;;;;5027361;28;20058;-77
2022/11/07 01:26:18;;;;;;;10.98;3.15;;;;;;;;;;5032712;28;20166;-77
2022/11/07 01:28:47;;;;;;;12.73;3.13;;;;;;;;;;5018828;28;20504;-77
2022/11/07 01:31:17;;;;;;;7.95;3.10;;;;;;;;;;5014383;28;20054;-77
2022/11/07 01:33:45;;;;;;;13.70;3.45;;;;;;;;;;5017092;28;20086;-77
2022/11/07 01:36:13;;;;;;;10.15;3.38;;;;;;;;;;5023975;28;20077;-77
2022/11/07 01:38:43;;;;;;;13.15;3.40;;;;;;;;;;5025101;28;20530;-77
2022/11/07 01:41:21;;;;;;;10.27;3.00;;;;;;;;;;5016006;28;20057;-77
2022/11/07 01:43:51;;;;;;;12.05;3.20;;;;;;;;;;5025439;28;20046;-77
2022/11/07 01:46:22;;;;;;;15.93;3.13;;;;;;;;;;5019105;28;20051;-77
2022/11/07 01:48:54;;;;;;;12.15;2.90;;;;;;;;;;5024462;28;20105;-77
2022/11/07 01:51:22;;;;;;;13.82;3.00;;;;;;;;;;5018527;28;20050;-78
2022/11/07 01:53:51;;;;;;;8.55;2.45;;;;;;;;;;5029993;28;20049;-77
2022/11/07 01:56:22;;;;;;;11.70;2.88;;;;;;;;;;5017882;28;20202;-77
2022/11/07 01:58:51;;;;;;;12.77;3.00;;;;;;;;;;5017618;28;20061;-77
2022/11/07 02:01:18;;;;;;;13.80;3.05;;;;;;;;;;5025874;28;20073;-77
2022/11/07 02:03:49;;;;;;;11.60;2.65;;;;;;;;;;5017264;28;20061;-77
2022/11/07 02:06:24;;;;;;;13.05;2.65;;;;;;;;;;5022955;28;20050;-77
2022/11/07 02:08:51;;;;;;;15.18;3.00;;;;;;;;;;5017507;28;20507;-77
2022/11/07 02:11:19;;;;;;;13.80;2.60;;;;;;;;;;5025549;28;20097;-77
2022/11/07 02:13:46;;;;;;;12.63;2.88;;;;;;;;;;5019753;28;20052;-77
2022/11/07 02:16:14;;;;;;;13.27;2.65;;;;;;;;;;5024244;28;20042;-77
2022/11/07 02:18:43;;;;;;;12.55;3.13;;;;;;;;;;5024712;28;20049;-78
2022/11/07 02:21:17;;;;;;;17.50;3.15;;;;;;;;;;5021432;28;20566;-77
2022/11/07 02:23:49;;;;;;;17.50;2.60;;;;;;;;;;5019519;28;20113;-79
2022/11/07 02:26:17;;;;;;;18.48;3.05;;;;;;;;;;5020083;28;20085;-77
2022/11/07 02:28:48;;;;;;;7.22;2.50;;;;;;;;;;5016767;28;20104;-77
2022/11/07 02:31:16;;;;;;;13.13;2.67;;;;;;;;;;5016538;28;20056;-77
2022/11/07 02:33:43;;;;;;;13.95;2.88;;;;;;;;;;5024841;28;20057;-77
2022/11/07 02:36:15;;;;;;;11.70;2.85;;;;;;;;;;5021643;28;20053;-77
2022/11/07 02:38:43;;;;;;;9.75;2.80;;;;;;;;;;5017903;28;20046;-77
2022/11/07 02:41:16;;;;;;;9.55;2.72;;;;;;;;;;5022100;28;20052;-77
2022/11/07 02:43:47;;;;;;;13.87;3.30;;;;;;;;;;5014157;28;20066;-78
2022/11/07 02:46:15;;;;;;;10.85;2.72;;;;;;;;;;5011632;28;20286;-77
2022/11/07 02:48:45;;;;;;;16.60;3.20;;;;;;;;;;5017839;28;20061;-77
2022/11/07 02:51:12;;;;;;;11.88;2.85;;;;;;;;;;5010753;28;20065;-77
2022/11/07 02:53:40;;;;;;;13.25;3.40;;;;;;;;;;5026695;28;20154;-77
2022/11/07 02:56:07;;;;;;;13.77;3.42;;;;;;;;;;5018752;28;20053;-77
2022/11/07 02:58:35;;;;;;;12.60;3.67;;;;;;;;;;5015929;28;20061;-79
2022/11/07 03:01:11;;;;;;;7.72;3.30;;;;;;;;;;5019599;28;20046;-77
2022/11/07 03:03:43;;;;;;;15.77;3.90;;;;;;;;;;5026543;28;20090;-77
2022/11/07 03:06:11;;;;;;;12.55;3.58;;;;;;;;;;5020565;28;20133;-77
2022/11/07 03:08:39;;;;;;;14.18;3.40;;;;;;;;;;5023344;28;20090;-77
2022/11/07 03:11:07;;;;;;;15.05;3.75;;;;;;;;;;5023896;28;20046;-77
2022/11/07 03:13:35;;;;;;;13.18;3.90;;;;;;;;;;5031200;28;20053;-77
2022/11/07 03:16:06;;;;;;;11.02;3.55;;;;;;;;;;5014909;28;20080;-77
2022/11/07 03:18:33;;;;;;;17.95;3.90;;;;;;;;;;5021592;28;20101;-77
2022/11/07 03:21:01;;;;;;;22.00;4.50;;;;;;;;;;5015836;28;21117;-76
2022/11/07 03:23:28;;;;;;;12.70;3.78;;;;;;;;;;5013320;28;20093;-77
2022/11/07 03:25:56;;;;;;;11.02;3.60;;;;;;;;;;5014629;28;20066;-77
2022/11/07 03:28:23;;;;;;;10.25;3.58;;;;;;;;;;5024693;28;20082;-77
2022/11/07 03:30:51;;;;;;;15.93;3.65;;;;;;;;;;5022496;28;20050;-77
2022/11/07 03:33:18;;;;;;;15.18;3.45;;;;;;;;;;5023556;28;20046;-76
2022/11/07 03:35:46;;;;;;;12.70;3.72;;;;;;;;;;5019491;28;20046;-77
2022/11/07 03:38:13;;;;;;;13.65;3.40;;;;;;;;;;5017940;28;20055;-77
2022/11/07 03:40:41;;;;;;;9.18;3.15;;;;;;;;;;5018803;28;20971;-77
2022/11/07 03:43:08;;;;;;;12.15;3.47;;;;;;;;;;5021871;28;20596;-77
2022/11/07 03:45:35;;;;;;;20.90;3.45;;;;;;;;;;5020250;28;21060;-76
2022/11/07 03:48:02;;;;;;;13.40;3.22;;;;;;;;;;5026030;28;20496;-78
2022/11/07 03:50:33;;;;;;;15.65;3.10;;;;;;;;;;5012818;28;20058;-77
2022/11/07 03:53:00;;;;;;;14.63;3.08;;;;;;;;;;5022704;28;20052;-77
2022/11/07 03:55:27;;;;;;;14.52;3.30;;;;;;;;;;5013856;28;20065;-77
2022/11/07 03:57:54;;;;;;;10.60;2.88;;;;;;;;;;5015171;28;20065;-77
2022/11/07 04:00:21;;;;;;;10.65;3.30;;;;;;;;;;5017601;28;20068;-77
2022/11/07 04:02:51;;;;;;;16.27;3.40;;;;;;;;;;5017783;28;20050;-78
2022/11/07 04:05:19;;;;;;;17.05;3.20;;;;;;;;;;5025194;28;20053;-77
2022/11/07 04:07:46;;;;;;;13.32;3.25;;;;;;;;;;5021982;28;20558;-77
2022/11/07 04:10:13;;;;;;;12.15;3.15;;;;;;;;;;5020357;28;20137;-77
2022/11/07 04:18:13;;;;;;;13.15;3.30;;;;;;;;;;5015589;28;20050;-77
2022/11/07 04:20:41;;;;;;;16.25;3.58;;;;;;;;;;5017661;28;20049;-77
2022/11/07 04:23:08;;;;;;;17.48;2.92;;;;;;;;;;5013090;28;20447;-77
2022/11/07 04:28:37;;;;;;;16.80;3.20;;;;;;;;;;4972665;28;20057;-76
2022/11/07 04:31:05;;;;;;;11.95;3.33;;;;;;;;;;5034255;28;20062;-77
2022/11/07 04:33:32;;;;;;;16.40;3.53;;;;;;;;;;5017146;28;20053;-76
2022/11/07 04:35:59;;;;;;;13.13;3.13;;;;;;;;;;5020386;28;21028;-76
2022/11/07 04:38:27;;;;;;;18.58;3.30;;;;;;;;;;5016492;28;21099;-77
2022/11/07 04:40:55;;;;;;;18.25;3.78;;;;;;;;;;5013686;28;20050;-76
2022/11/07 04:43:22;;;;;;;9.70;2.97;;;;;;;;;;5017106;28;20131;-77
2022/11/07 04:45:50;;;;;;;17.70;3.80;;;;;;;;;;5015478;28;20104;-77
2022/11/07 04:48:18;;;;;;;16.58;3.72;;;;;;;;;;5021579;28;20065;-77
2022/11/07 04:50:46;;;;;;;13.57;3.13;;;;;;;;;;5023371;28;20041;-77
2022/11/07 04:53:14;;;;;;;22.25;3.58;;;;;;;;;;5011131;28;20061;-77
2022/11/07 04:55:42;;;;;;;12.70;3.13;;;;;;;;;;5023480;28;20054;-76
2022/11/07 04:58:10;;;;;;;11.63;3.10;;;;;;;;;;5021858;28;20058;-77
2022/11/07 05:00:37;;;;;;;13.38;3.38;;;;;;;;;;5021062;28;20058;-76
2022/11/07 05:03:05;;;;;;;15.10;3.33;;;;;;;;;;5018942;28;20046;-77
2022/11/07 05:05:32;;;;;;;10.57;3.05;;;;;;;;;;5013275;28;20054;-76
2022/11/07 05:07:59;;;;;;;10.63;3.20;;;;;;;;;;5008224;28;20054;-77
2022/11/07 05:10:28;;;;;;;15.82;3.80;;;;;;;;;;5018618;28;20054;-77
2022/11/07 05:12:56;;;;;;;20.98;3.97;;;;;;;;;;5010096;28;20054;-76
2022/11/07 05:15:23;;;;;;;13.48;3.40;;;;;;;;;;5022676;28;20061;-77
2022/11/07 05:17:51;;;;;;;14.27;2.90;;;;;;;;;;5017558;28;20062;-77
2022/11/07 05:20:18;;;;;;;19.58;3.88;;;;;;;;;;5020892;28;20137;-77
2022/11/07 05:25:34;;;;;;;15.80;3.22;;;;;;;;;;5014434;28;20057;-76
2022/11/07 05:28:02;;;;;;;17.73;3.05;;;;;;;;;;5016083;28;20534;-77
2022/11/07 05:30:29;;;;;;;20.55;3.47;;;;;;;;;;5016922;28;20482;-77
2022/11/07 05:32:56;;;;;;;10.63;3.13;;;;;;;;;;5016438;28;20050;-76
2022/11/07 05:35:23;;;;;;;16.75;3.10;;;;;;;;;;5024608;28;20057;-77
2022/11/07 05:37:51;;;;;;;27.58;3.10;;;;;;;;;;5021961;28;20086;-77
2022/11/07 05:40:18;;;;;;;16.45;2.88;;;;;;;;;;5023929;28;20046;-77
2022/11/07 05:42:46;;;;;;;14.13;3.28;;;;;;;;;;5015535;28;20047;-77
2022/11/07 05:45:13;;;;;;;14.20;2.90;;;;;;;;;;5018122;28;20887;-76
2022/11/07 05:47:41;;;;;;;19.42;3.47;;;;;;;;;;5021080;28;20049;-77
2022/11/07 05:50:09;;;;;;;20.02;3.72;;;;;;;;;;5023083;28;20050;-77
2022/11/07 05:52:36;;;;;;;18.67;2.78;;;;;;;;;;5015309;28;20053;-77
2022/11/07 05:55:04;;;;;;;13.30;3.35;;;;;;;;;;5012247;28;20053;-77
2022/11/07 05:57:31;;;;;;;21.33;3.17;;;;;;;;;;5020790;28;20058;-77
2022/11/07 05:59:58;;;;;;;17.27;3.22;;;;;;;;;;5022531;28;20050;-77
2022/11/07 06:02:25;;;;;;;18.70;3.70;;;;;;;;;;5023766;28;20057;-77
2022/11/07 06:04:52;;;;;;;18.60;3.05;;;;;;;;;;5034003;28;20073;-77
2022/11/07 06:07:20;;;;;;;15.13;3.03;;;;;;;;;;5018514;28;20057;-78
2022/11/07 06:09:48;;;;;;;17.45;3.40;;;;;;;;;;5023237;28;20046;-77
2022/11/07 06:12:16;;;;;;;18.70;3.78;;;;;;;;;;5018682;28;20056;-76
2022/11/07 06:14:46;;;;;;;16.42;3.08;;;;;;;;;;5023370;28;22777;-77
2022/11/07 06:17:14;;;;;;;25.25;3.97;;;;;;;;;;5028852;28;20423;-76
2022/11/07 06:19:41;;;;;;;17.70;3.40;;;;;;;;;;5021518;28;20041;-77
2022/11/07 06:22:08;;;;;;;18.83;3.28;;;;;;;;;;5024566;28;21223;-77
2022/11/07 06:24:35;;;;;;;15.48;3.28;;;;;;;;;;5020275;28;20046;-77
2022/11/07 06:27:02;;;;;;;17.98;3.10;;;;;;;;;;5023334;28;20487;-77
2022/11/07 06:29:30;;;;;;;18.52;3.40;;;;;;;;;;5020206;28;20046;-77
2022/11/07 06:31:57;;;;;;;17.30;3.47;;;;;;;;;;5021040;28;20049;-77
2022/11/07 06:34:25;;;;;;;13.23;2.97;;;;;;;;;;5018675;28;20057;-76
2022/11/07 06:36:53;;;;;;;18.52;3.58;;;;;;;;;;5022512;28;20067;-76
2022/11/07 06:39:29;;;;;;;22.83;3.45;;;;;;;;;;5015928;28;20093;-77
2022/11/07 06:41:56;;;;;;;14.55;3.38;;;;;;;;;;5017381;28;20061;-77
2022/11/07 06:44:23;;;;;;;18.95;3.30;;;;;;;;;;5019042;28;20054;-77
2022/11/07 06:46:50;;;;;;;20.75;3.22;;;;;;;;;;5018696;28;20096;-76
2022/11/07 06:49:18;;;;;;;15.93;2.92;;;;;;;;;;5019056;28;20108;-77
2022/11/07 06:51:45;;;;;;;20.88;3.33;;;;;;;;;;5017219;28;22277;-78
2022/11/07 06:54:14;;;;;;;14.63;2.90;;;;;;;;;;5023776;28;20408;-77
2022/11/07 06:56:41;;;;;;;14.05;3.60;;;;;;;;;;5021136;28;20112;-77
2022/11/07 06:59:08;;;;;;;15.32;2.75;;;;;;;;;;5015069;28;20054;-77
2022/11/07 07:01:36;;;;;;;12.95;2.92;;;;;;;;;;5021050;28;20051;-77
2022/11/07 07:04:05;;;;;;;24.60;3.30;;;;;;;;;;5024747;28;20108;-77
2022/11/07 07:06:32;;;;;;;10.82;2.50;;;;;;;;;;5021383;28;20042;-77
2022/11/07 07:09:02;;;;;;;15.73;3.03;;;;;;;;;;5018326;28;20061;-77
2022/11/07 07:11:29;;;;;;;15.18;3.05;;;;;;;;;;5020255;28;20125;-77
2022/11/07 07:13:56;;;;;;;14.23;3.00;;;;;;;;;;5016781;28;20046;-77
2022/11/07 07:18:54;;;;;;;19.83;3.28;;;;;;;;;;5172398;27;20397;-77
2022/11/07 07:21:21;;;;;;;14.18;3.47;;;;;;;;;;5153279;27;20166;-77
2022/11/07 07:23:52;;;;;;;14.93;2.80;;;;;;;;;;5158535;27;21111;-77
2022/11/07 07:26:19;;;;;;;17.80;3.42;;;;;;;;;;5156191;27;20188;-77
2022/11/07 07:28:47;;;;;;;14.60;3.00;;;;;;;;;;5151003;27;20083;-77
2022/11/07 07:31:15;;;;;;;14.68;2.63;;;;;;;;;;5161115;27;20047;-77
2022/11/07 07:33:44;;;;;;;15.20;2.78;;;;;;;;;;5154741;27;20134;-77
2022/11/07 07:36:11;;;;;;;13.32;2.92;;;;;;;;;;5155647;27;20052;-76
2022/11/07 07:38:45;;;;;;;17.05;3.45;;;;;;;;;;5155336;27;20512;-76
2022/11/07 07:41:12;;;;;;;15.60;2.78;;;;;;;;;;5153140;27;20054;-76
2022/11/07 07:43:40;;;;;;;19.33;3.17;;;;;;;;;;5153968;27;20158;-77
2022/11/07 07:46:08;;;;;;;11.80;3.22;;;;;;;;;;5161232;27;20047;-76
2022/11/07 07:48:35;;;;;;;17.25;3.25;;;;;;;;;;5133884;27;20051;-77
2022/11/07 07:51:03;;;;;;;13.48;2.70;;;;;;;;;;5157412;27;20623;-77
2022/11/07 07:53:30;;;;;;;14.43;2.65;;;;;;;;;;5153297;27;20054;-76
2022/11/07 07:55:58;;;;;;;10.95;2.97;;;;;;;;;;5130217;27;20047;-77
2022/11/07 07:58:26;;;;;;;17.08;2.90;;;;;;;;;;5154144;27;20051;-77
2022/11/07 08:00:57;;;;;;;11.98;3.35;;;;;;;;;;5150674;27;20051;-77
2022/11/07 08:03:25;;;;;;;19.50;3.35;;;;;;;;;;5135307;27;20055;-76
2022/11/07 08:06:01;;;;;;;13.35;2.40;;;;;;;;;;5157220;27;20032;-77
2022/11/07 08:08:28;;;;;;;9.77;2.83;;;;;;;;;;5158711;27;20054;-77
2022/11/07 08:11:07;;;;;;;15.65;2.92;;;;;;;;;;5159653;27;20051;-76
2022/11/07 08:13:35;;;;;;;13.40;2.88;;;;;;;;;;5157153;27;20047;-77
2022/11/07 08:16:04;;;;;;;16.40;2.92;;;;;;;;;;5160996;27;20093;-76
2022/11/07 08:18:32;;;;;;;17.90;3.72;;;;;;;;;;5162901;27;20169;-77
2022/11/07 08:20:59;;;;;;;10.90;2.40;;;;;;;;;;5156765;27;20048;-77
2022/11/07 08:23:27;;;;;;;18.15;3.00;;;;;;;;;;5153174;27;20051;-76
2022/11/07 08:25:56;;;;;;;15.88;3.15;;;;;;;;;;5152412;27;20071;-76
2022/11/07 08:28:24;;;;;;;10.27;2.40;;;;;;;;;;5145737;27;20052;-76
2022/11/07 08:30:57;;;;;;;12.98;2.75;;;;;;;;;;5126158;27;20987;-77
2022/11/07 08:33:25;;;;;;;11.10;2.83;;;;;;;;;;5142402;27;20494;-77
2022/11/07 08:35:57;;;;;;;12.65;3.00;;;;;;;;;;5124210;27;20077;-78
2022/11/07 08:38:24;;;;;;;16.58;2.95;;;;;;;;;;5123047;27;20051;-78
2022/11/07 08:40:52;;;;;;;13.00;2.80;;;;;;;;;;5126515;27;20055;-78
2022/11/07 08:43:20;;;;;;;14.60;2.40;;;;;;;;;;5121832;27;20130;-77
2022/11/07 08:45:48;;;;;;;12.73;2.42;;;;;;;;;;5139978;27;20055;-77
2022/11/07 08:48:19;;;;;;;13.43;2.70;;;;;;;;;;5125282;27;20104;-77
2022/11/07 08:50:50;;;;;;;14.68;2.22;;;;;;;;;;5142850;27;20048;-77
2022/11/07 08:53:18;;;;;;;17.20;2.78;;;;;;;;;;5122107;27;20054;-77
2022/11/07 08:55:52;;;;;;;14.93;3.10;;;;;;;;;;5139430;27;20056;-77
2022/11/07 08:58:19;;;;;;;7.38;2.72;;;;;;;;;;5141281;27;20063;-77
2022/11/07 09:00:53;;;;;;;12.18;2.70;;;;;;;;;;5142872;27;20118;-77
2022/11/07 09:03:20;;;;;;;14.13;2.67;;;;;;;;;;5144392;27;20049;-77
2022/11/07 09:06:07;;;;;;;12.00;2.30;;;;;;;;;;5136592;27;20059;-78
2022/11/07 09:08:35;;;;;;;13.18;2.20;;;;;;;;;;5140556;27;20057;-77
2022/11/07 09:11:03;;;;;;;15.40;2.33;;;;;;;;;;5143415;27;20101;-78
2022/11/07 09:13:31;;;;;;;13.35;2.40;;;;;;;;;;5145001;27;20126;-78
2022/11/07 09:16:00;;;;;;;8.18;2.40;;;;;;;;;;5142417;27;20048;-77
2022/11/07 09:18:28;;;;;;;13.52;2.67;;;;;;;;;;5140213;27;20059;-77
2022/11/07 09:20:57;;;;;;;11.60;2.45;;;;;;;;;;5134081;27;20053;-77
2022/11/07 09:23:27;;;;;;;14.05;2.90;;;;;;;;;;5142553;27;20047;-77
2022/11/07 09:25:54;;;;;;;14.20;2.42;;;;;;;;;;5141432;27;20067;-78
2022/11/07 09:28:22;;;;;;;11.73;2.80;;;;;;;;;;5122562;27;20047;-78
2022/11/07 09:30:56;;;;;;;11.40;2.97;;;;;;;;;;5118584;27;20055;-78
2022/11/07 09:33:24;;;;;;;12.77;2.75;;;;;;;;;;5142273;27;20104;-77
2022/11/07 09:35:53;;;;;;;12.05;3.25;;;;;;;;;;5140136;27;20047;-77
2022/11/07 09:38:20;;;;;;;14.73;3.03;;;;;;;;;;5132127;27;20080;-77
2022/11/07 09:41:03;;;;;;;13.27;2.40;;;;;;;;;;5117935;27;20047;-77
2022/11/07 09:43:34;;;;;;;13.03;2.80;;;;;;;;;;5139824;27;20124;-77
2022/11/07 09:46:11;;;;;;;16.75;3.08;;;;;;;;;;5138728;27;20052;-77
2022/11/07 09:48:43;;;;;;;10.55;2.63;;;;;;;;;;5138611;27;21245;-77
2022/11/07 09:51:25;;;;;;;12.43;2.85;;;;;;;;;;5140741;27;20062;-77
2022/11/07 09:53:56;;;;;;;15.80;2.83;;;;;;;;;;5143180;27;20082;-78
2022/11/07 09:56:24;;;;;;;9.25;3.03;;;;;;;;;;5137933;27;20055;-78
2022/11/07 09:58:53;;;;;;;14.15;2.72;;;;;;;;;;5139741;27;20063;-75
2022/11/07 10:01:21;;;;;;;13.43;2.97;;;;;;;;;;5135672;27;20136;-75
2022/11/07 10:03:51;;;;;;;15.25;2.85;;;;;;;;;;5136293;27;20151;-75
2022/11/07 10:07:11;;;;;;;13.98;2.88;;;;;;;;;;5130007;27;20048;-75
2022/11/07 10:09:41;;;;;;;14.98;2.83;;;;;;;;;;5098746;27;20126;-75
2022/11/07 10:12:47;;;;;;;12.88;2.55;;;;;;;;;;5141724;27;20066;-75
2022/11/07 10:15:32;;;;;;;10.75;2.13;;;;;;;;;;5082484;28;20059;-76
2022/11/07 10:18:07;;;;;;;11.38;3.03;;;;;;;;;;5081313;28;20063;-75
2022/11/07 10:20:46;;;;;;;10.05;2.70;;;;;;;;;;5083120;28;20059;-76
2022/11/07 10:23:28;;;;;;;12.88;2.65;;;;;;;;;;5082178;28;20063;-75
2022/11/07 10:26:11;;;;;;;11.73;2.55;;;;;;;;;;5083779;28;20489;-75
2022/11/07 10:29:04;;;;;;;14.25;2.95;;;;;;;;;;5081815;28;20074;-75
2022/11/07 10:31:36;;;;;;;10.90;2.45;;;;;;;;;;5077684;28;20063;-75
2022/11/07 10:34:22;;;;;;;11.05;2.75;;;;;;;;;;5080371;28;20082;-76
2022/11/07 10:36:50;;;;;;;12.15;2.80;;;;;;;;;;5086759;28;20049;-75
2022/11/07 10:39:18;;;;;;;11.45;2.53;;;;;;;;;;5080441;28;20056;-75
2022/11/07 10:41:59;;;;;;;19.38;3.38;;;;;;;;;;5083091;28;20576;-76
2022/11/07 10:44:28;;;;;;;18.70;3.22;;;;;;;;;;5080314;28;21824;-76
2022/11/07 10:46:56;;;;;;;11.23;3.25;;;;;;;;;;5134693;27;20096;-75
2022/11/07 10:49:23;;;;;;;14.10;3.25;;;;;;;;;;5125246;27;20050;-75
2022/11/07 10:51:50;;;;;;;12.48;3.17;;;;;;;;;;5136916;27;20096;-75
2022/11/07 10:54:26;;;;;;;13.25;3.25;;;;;;;;;;5134276;27;20093;-76
2022/11/07 10:57:08;;;;;;;14.20;2.75;;;;;;;;;;5123750;27;20048;-76
2022/11/07 10:59:36;;;;;;;;;;;;;;;;;;5142204;27;20051;-76
2022/11/07 11:02:13;;;;;;;10.95;2.20;;;;;;;;;;5120034;27;42338;-75
2022/11/07 11:04:47;;;;;;;13.07;2.60;;;;;;;;;;5139259;27;20057;-76
2022/11/07 11:07:19;;;;;;;9.55;2.97;;;;;;;;;;5139428;27;20051;-76
2022/11/07 11:09:55;;;;;;;20.38;2.85;;;;;;;;;;5137124;27;20135;-76
2022/11/07 11:12:29;;;;;;;11.63;2.90;;;;;;;;;;5140755;27;20051;-76
2022/11/07 11:15:10;;;;;;;18.02;3.55;;;;;;;;;;5146547;27;20084;-76
2022/11/07 11:17:37;;;;;;;13.52;2.53;;;;;;;;;;5136909;27;20066;-75
2022/11/07 11:20:06;;;;;;;7.70;2.22;;;;;;;;;;5143973;27;20103;-76
2022/11/07 11:22:39;;;;;;;15.02;2.33;;;;;;;;;;5143124;27;20055;-76
2022/11/07 11:25:12;;;;;;;13.17;2.40;;;;;;;;;;5136439;27;20782;-76
2022/11/07 11:27:40;;;;;;;15.55;3.28;;;;;;;;;;5135565;27;20265;-76
2022/11/07 11:30:11;;;;;;;14.32;2.75;;;;;;;;;;5135651;27;20047;-76
2022/11/07 11:32:40;;;;;;;16.33;2.70;;;;;;;;;;5137762;27;20043;-76
2022/11/07 11:35:08;;;;;;;12.05;3.38;;;;;;;;;;5138812;27;20057;-76
2022/11/07 11:37:37;;;;;;;14.13;2.97;;;;;;;;;;5136500;27;20104;-75
2022/11/07 11:40:08;;;;;;;16.60;2.55;;;;;;;;;;5141370;27;20047;-77
2022/11/07 11:42:48;;;;;;;14.32;2.70;;;;;;;;;;5140873;27;20051;-76
2022/11/07 11:45:21;;;;;;;15.43;3.90;;;;;;;;;;5110665;27;20048;-76
2022/11/07 11:47:59;;;;;;;11.52;2.70;;;;;;;;;;5135197;27;20104;-76
2022/11/07 11:50:40;;;;;;;11.85;2.70;;;;;;;;;;5140505;27;20506;-77
2022/11/07 11:53:10;;;;;;;11.80;2.65;;;;;;;;;;5139044;27;20138;-76
2022/11/07 11:55:42;;;;;;;10.48;2.42;;;;;;;;;;5136432;27;20492;-76
2022/11/07 11:58:27;;;;;;;17.80;3.35;;;;;;;;;;5127035;27;20051;-78
2022/11/07 12:01:09;;;;;;;13.93;2.70;;;;;;;;;;5113519;27;20058;-77
2022/11/07 12:03:48;;;;;;;9.85;2.33;;;;;;;;;;5129686;27;20056;-76
2022/11/07 12:06:27;;;;;;;15.85;2.60;;;;;;;;;;5121511;27;20063;-77
2022/11/07 12:09:00;;;;;;;18.60;3.47;;;;;;;;;;5137420;27;20086;-76
2022/11/07 12:11:37;;;;;;;13.70;2.80;;;;;;;;;;5137237;27;20058;-77
2022/11/07 12:14:13;;;;;;;12.80;3.40;;;;;;;;;;5125809;27;20043;-76
2022/11/07 12:16:53;;;;;;;14.45;2.63;;;;;;;;;;5121810;27;20057;-76
2022/11/07 12:19:26;;;;;;;14.52;2.78;;;;;;;;;;5140203;27;20047;-76
2022/11/07 12:22:12;;;;;;;14.27;2.97;;;;;;;;;;5128034;27;20081;-76
2022/11/07 12:24:39;;;;;;;15.38;2.42;;;;;;;;;;5126320;27;20051;-76
2022/11/07 12:27:29;;;;;;;12.50;2.78;;;;;;;;;;5134066;27;20073;-76
2022/11/07 12:30:04;;;;;;;14.57;2.40;;;;;;;;;;5126287;27;20132;-76
2022/11/07 12:32:46;;;;;;;19.65;2.97;;;;;;;;;;5142745;27;20051;-76
2022/11/07 12:35:39;;;;;;;13.82;2.40;;;;;;;;;;5133826;27;20054;-76
2022/11/07 12:38:25;;;;;;;16.55;2.97;;;;;;;;;;5142299;27;20113;-76
2022/11/07 12:40:52;;;;;;;13.75;2.33;;;;;;;;;;5126841;27;20427;-76
2022/11/07 12:43:25;;;;;;;16.60;3.33;;;;;;;;;;5141054;27;20508;-76
2022/11/07 12:45:52;;;;;;;16.30;3.00;;;;;;;;;;5152239;27;20047;-76
2022/11/07 12:48:26;;;;;;;13.32;2.42;;;;;;;;;;5133721;27;20139;-76
2022/11/07 12:51:03;;;;;;;13.13;3.03;;;;;;;;;;5150138;27;20131;-76
2022/11/07 12:53:33;;;;;;;14.95;2.75;;;;;;;;;;5126163;27;20101;-77
2022/11/07 12:56:04;;;;;;;12.70;2.40;;;;;;;;;;5145245;27;20054;-75
2022/11/07 12:58:33;;;;;;;14.10;2.75;;;;;;;;;;5143649;27;20710;-77
2022/11/07 13:01:00;;;;;;;11.10;2.67;;;;;;;;;;5145837;27;20047;-76
2022/11/07 13:03:46;;;;;;;13.05;2.53;;;;;;;;;;5141817;27;20048;-77
2022/11/07 13:06:29;;;;;;;16.10;3.13;;;;;;;;;;5144710;27;20081;-76
2022/11/07 13:09:00;;;;;;;8.65;2.10;;;;;;;;;;5144907;27;20055;-76
2022/11/07 13:11:27;;;;;;;14.52;2.63;;;;;;;;;;5147779;27;20050;-77
2022/11/07 13:14:07;;;;;;;12.90;2.60;;;;;;;;;;5148497;27;20047;-76
2022/11/07 13:16:35;;;;;;;18.33;2.75;;;;;;;;;;5142148;27;20043;-77
2022/11/07 13:19:10;;;;;;;12.40;2.28;;;;;;;;;;5142774;27;20530;-77
2022/11/07 13:21:44;;;;;;;13.23;3.00;;;;;;;;;;5138986;27;20051;-77
2022/11/07 13:24:21;;;;;;;12.32;2.58;;;;;;;;;;5144691;27;20048;-76
2022/11/07 13:26:48;;;;;;;15.65;2.88;;;;;;;;;;5143504;27;20112;-76
2022/11/07 13:29:35;;;;;;;9.95;2.20;;;;;;;;;;5143139;27;20130;-76
2022/11/07 13:32:13;;;;;;;13.07;3.00;;;;;;;;;;5142697;27;20124;-76
2022/11/07 13:34:58;;;;;;;14.57;2.65;;;;;;;;;;5140851;27;20047;-76
2022/11/07 13:37:28;;;;;;;11.63;2.45;;;;;;;;;;5123020;27;20074;-78
2022/11/07 13:40:00;;;;;;;15.43;3.33;;;;;;;;;;5148417;27;20170;-76
2022/11/07 13:42:30;;;;;;;8.23;2.30;;;;;;;;;;5137858;27;20047;-75
2022/11/07 13:45:02;;;;;;;11.75;2.30;;;;;;;;;;5153897;27;20046;-75
2022/11/07 13:47:37;;;;;;;17.60;2.97;;;;;;;;;;5145740;27;20047;-76
2022/11/07 13:50:25;;;;;;;11.32;2.58;;;;;;;;;;5144532;27;20065;-75
2022/11/07 13:53:00;;;;;;;12.60;2.47;;;;;;;;;;5141315;27;20154;-76
2022/11/07 13:55:55;;;;;;;12.25;3.10;;;;;;;;;;5138985;27;20056;-75
2022/11/07 13:58:23;;;;;;;13.23;2.40;;;;;;;;;;5073529;28;21076;-75
2022/11/07 14:00:50;;;;;;;11.15;2.65;;;;;;;;;;5065895;28;20101;-75
2022/11/07 14:03:22;;;;;;;9.45;2.15;;;;;;;;;;5071240;28;20162;-75
2022/11/07 14:05:54;;;;;;;17.35;2.67;;;;;;;;;;5068464;28;20053;-75
2022/11/07 14:08:24;;;;;;;11.82;2.72;;;;;;;;;;5061549;28;20049;-75
2022/11/07 14:10:54;;;;;;;11.23;2.60;;;;;;;;;;5052180;28;20111;-76
2022/11/07 14:13:21;;;;;;;11.95;2.42;;;;;;;;;;5072149;28;20333;-76
2022/11/07 14:15:53;;;;;;;14.40;2.40;;;;;;;;;;5045583;28;20127;-76
2022/11/07 14:18:22;;;;;;;12.93;2.63;;;;;;;;;;5068533;28;20060;-76
2022/11/07 14:20:53;;;;;;;11.10;2.13;;;;;;;;;;5065786;28;20056;-76
2022/11/07 14:23:22;;;;;;;8.82;2.17;;;;;;;;;;5065993;28;20045;-75
2022/11/07 14:25:59;;;;;;;11.80;2.72;;;;;;;;;;5060250;28;20049;-76
2022/11/07 14:28:33;;;;;;;11.10;2.60;;;;;;;;;;5066750;28;20045;-76
2022/11/07 14:31:04;;;;;;;12.77;2.45;;;;;;;;;;5067488;28;20900;-76
2022/11/07 14:33:31;;;;;;;9.07;2.40;;;;;;;;;;5069112;28;20053;-75
2022/11/07 14:36:02;;;;;;;10.77;2.25;;;;;;;;;;5117849;27;20048;-75
2022/11/07 14:38:30;;;;;;;20.02;2.83;;;;;;;;;;5139521;27;20058;-75
2022/11/07 14:40:59;;;;;;;13.07;2.67;;;;;;;;;;5127791;27;20047;-75
2022/11/07 14:43:27;;;;;;;10.00;2.10;;;;;;;;;;5138672;27;20051;-75
2022/11/07 14:46:02;;;;;;;10.40;2.30;;;;;;;;;;5127638;27;20047;-74
2022/11/07 14:48:40;;;;;;;15.13;3.15;;;;;;;;;;5129485;27;20059;-75
2022/11/07 14:51:12;;;;;;;12.48;2.00;;;;;;;;;;5151347;27;20138;-75
2022/11/07 14:53:54;;;;;;;14.35;2.50;;;;;;;;;;5148765;27;20515;-75
2022/11/07 14:56:21;;;;;;;;;;;;;;;;;;5144555;27;20062;-75
2022/11/07 14:58:49;;;;;;;9.95;2.47;;;;;;;;;;5142130;27;45740;-76
2022/11/07 15:01:25;;;;;;;12.20;2.30;;;;;;;;;;5147396;27;21313;-77
2022/11/07 15:03:55;;;;;;;12.13;2.17;;;;;;;;;;5147499;27;20197;-76
2022/11/07 15:06:24;;;;;;;12.63;2.00;;;;;;;;;;5129693;27;20047;-75
2022/11/07 15:09:00;;;;;;;17.50;2.70;;;;;;;;;;5128586;27;20047;-75